createdAt,value
2017-10-23T00:01:27.334Z,99227.44
2017-10-23T00:03:54.802Z,99236.22
2017-10-23T00:06:22.289Z,99233.12
2017-10-23T00:08:49.789Z,99227.83
2017-10-23T00:11:17.280Z,99237.80
2017-10-23T00:13:44.751Z,99233.11
2017-10-23T00:16:12.251Z,99229.95
2017-10-23T00:18:39.722Z,99233.36
2017-10-23T00:21:07.179Z,99241.83
2017-10-23T00:23:34.675Z,99227.20
2017-10-23T00:26:02.137Z,99236.35
2017-10-23T00:28:29.610Z,99229.16
2017-10-23T00:30:57.083Z,99230.27
2017-10-23T00:33:24.552Z,99220.57
2017-10-23T00:35:52.006Z,99215.89
2017-10-23T00:38:19.494Z,99211.75
2017-10-23T00:40:46.967Z,99211.38
2017-10-23T00:43:14.449Z,99204.62
2017-10-23T00:45:41.919Z,99197.36
2017-10-23T00:48:09.395Z,99201.70
2017-10-23T00:50:36.854Z,99199.08
2017-10-23T00:53:04.348Z,99193.84
2017-10-23T00:55:31.799Z,99193.66
2017-10-23T00:57:59.288Z,99191.58
2017-10-23T01:00:26.772Z,99198.34
2017-10-23T01:02:54.273Z,99190.73
2017-10-23T01:05:21.721Z,99206.08
2017-10-23T01:07:49.214Z,99196.38
2017-10-23T01:10:16.669Z,99196.38
2017-10-23T01:12:44.113Z,99187.67
2017-10-23T01:15:11.714Z,99188.11
2017-10-23T01:17:39.162Z,99185.97
2017-10-23T01:20:06.633Z,99184.08
2017-10-23T01:22:34.127Z,99198.57
2017-10-23T01:25:01.577Z,99189.14
2017-10-23T01:27:29.038Z,99185.48
2017-10-23T01:29:56.518Z,99185.05
2017-10-23T01:32:23.978Z,99190.24
2017-10-23T01:34:51.437Z,99183.03
2017-10-23T01:37:18.965Z,99174.83
2017-10-23T01:39:46.445Z,99183.16
2017-10-23T01:42:13.909Z,99181.52
2017-10-23T01:44:41.409Z,99183.25
2017-10-23T01:47:08.875Z,99186.77
2017-10-23T01:49:36.339Z,99185.86
2017-10-23T01:52:03.830Z,99182.09
2017-10-23T01:54:31.301Z,99173.60
2017-10-23T01:56:58.750Z,99180.45
2017-10-23T01:59:26.235Z,99175.31
2017-10-23T02:01:53.721Z,99174.17
2017-10-23T02:04:21.187Z,99177.20
2017-10-23T02:06:48.681Z,99174.90
2017-10-23T02:09:16.161Z,99205.39
2017-10-23T02:11:43.623Z,99179.82
2017-10-23T02:14:11.090Z,99174.81
2017-10-23T02:16:38.553Z,99179.52
2017-10-23T02:19:06.014Z,99180.79
2017-10-23T02:21:33.505Z,99184.09
2017-10-23T02:24:00.960Z,99185.85
2017-10-23T02:26:28.412Z,99175.94
2017-10-23T02:28:55.874Z,99180.55
2017-10-23T02:31:23.332Z,99183.61
2017-10-23T02:33:50.795Z,99176.11
2017-10-23T02:36:18.278Z,99186.39
2017-10-23T02:38:45.739Z,99170.93
2017-10-23T02:41:13.188Z,99178.11
2017-10-23T02:43:40.684Z,99179.45
2017-10-23T02:46:08.164Z,99182.74
2017-10-23T02:48:35.633Z,99164.03
2017-10-23T02:51:03.126Z,99166.17
2017-10-23T02:53:30.595Z,99168.91
2017-10-23T02:55:58.052Z,99163.20
2017-10-23T02:58:25.591Z,99170.86
2017-10-23T03:00:53.047Z,99177.91
2017-10-23T03:03:20.519Z,99181.73
2017-10-23T03:05:47.994Z,99185.68
2017-10-23T03:08:15.497Z,99172.90
2017-10-23T03:10:42.967Z,99173.33
2017-10-23T03:13:10.438Z,99168.06
2017-10-23T03:15:37.914Z,99177.09
2017-10-23T03:18:05.381Z,99186.95
2017-10-23T03:20:32.885Z,99200.23
2017-10-23T03:23:00.359Z,99201.93
2017-10-23T03:25:27.820Z,99180.63
2017-10-23T03:27:55.310Z,99177.34
2017-10-23T03:30:22.783Z,99186.11
2017-10-23T03:32:50.265Z,99181.36
2017-10-23T03:35:17.763Z,99172.11
2017-10-23T03:37:45.472Z,99175.52
2017-10-23T03:40:12.963Z,99164.91
2017-10-23T03:42:40.480Z,99160.12
2017-10-23T03:45:07.928Z,99161.51
2017-10-23T03:47:35.404Z,99200.59
2017-10-23T03:50:02.903Z,99189.45
2017-10-23T03:52:30.415Z,99178.02
2017-10-23T03:54:57.884Z,99171.98
2017-10-23T03:57:25.369Z,99200.66
2017-10-23T03:59:52.863Z,99176.36
2017-10-23T04:02:20.327Z,99164.12
2017-10-23T04:04:47.864Z,99172.11
2017-10-23T04:07:15.327Z,99198.09
2017-10-23T04:09:42.803Z,99177.70
2017-10-23T04:12:10.291Z,99182.01
2017-10-23T04:14:37.790Z,99162.89
2017-10-23T04:17:05.260Z,99167.42
2017-10-23T04:19:32.741Z,99173.08
2017-10-23T04:22:00.198Z,99165.82
2017-10-23T04:24:27.714Z,99156.51
2017-10-23T04:26:55.188Z,99152.78
2017-10-23T04:29:22.672Z,99163.27
2017-10-23T04:31:50.142Z,99141.34
2017-10-23T04:34:17.636Z,99146.70
2017-10-23T04:36:45.098Z,99148.09
2017-10-23T04:39:12.545Z,99139.05
2017-10-23T04:41:40.022Z,99150.77
2017-10-23T04:44:07.508Z,99139.16
2017-10-23T04:46:34.967Z,99134.15
2017-10-23T04:49:02.449Z,99142.37
2017-10-23T04:51:29.918Z,99145.98
2017-10-23T04:53:57.377Z,99147.37
2017-10-23T04:56:24.896Z,99147.00
2017-10-23T04:58:52.357Z,99152.91
2017-10-23T05:01:19.827Z,99154.28
2017-10-23T05:03:47.331Z,99155.52
2017-10-23T05:06:14.803Z,99158.02
2017-10-23T05:08:42.273Z,99168.19
2017-10-23T05:11:09.820Z,99169.95
2017-10-23T05:13:37.298Z,99163.19
2017-10-23T05:16:04.786Z,99158.88
2017-10-23T05:18:32.303Z,99164.39
2017-10-23T05:20:59.768Z,99168.62
2017-10-23T05:23:27.238Z,99192.47
2017-10-23T05:25:54.756Z,99165.30
2017-10-23T05:28:22.230Z,99162.17
2017-10-23T05:30:49.717Z,99166.36
2017-10-23T05:33:17.214Z,99183.09
2017-10-23T05:35:44.726Z,99163.91
2017-10-23T05:38:12.213Z,99164.83
2017-10-23T05:40:39.710Z,99163.50
2017-10-23T05:43:08.039Z,99167.81
2017-10-23T05:45:35.517Z,99163.55
2017-10-23T05:48:03.013Z,99186.93
2017-10-23T05:50:31.007Z,99191.67
2017-10-23T05:52:58.479Z,99180.11
2017-10-23T05:55:25.999Z,99177.97
2017-10-23T05:57:53.473Z,99182.36
2017-10-23T06:00:20.931Z,99194.70
2017-10-23T06:02:48.441Z,99182.20
2017-10-23T06:05:15.894Z,99213.45
2017-10-23T06:07:43.378Z,99199.38
2017-10-23T06:10:11.170Z,99189.17
2017-10-23T06:12:38.674Z,99175.54
2017-10-23T06:15:06.183Z,99196.45
2017-10-23T06:17:33.664Z,99175.43
2017-10-23T06:20:01.139Z,99195.08
2017-10-23T06:22:28.694Z,99181.81
2017-10-23T06:24:56.194Z,99191.03
2017-10-23T06:27:23.673Z,99201.73
2017-10-23T06:29:51.138Z,99184.52
2017-10-23T06:32:18.632Z,99198.57
2017-10-23T06:34:46.101Z,99180.58
2017-10-23T06:37:13.608Z,99184.83
2017-10-23T06:39:41.086Z,99190.37
2017-10-23T06:42:08.601Z,99196.27
2017-10-23T06:44:36.067Z,99191.52
2017-10-23T06:47:03.574Z,99192.45
2017-10-23T06:49:31.050Z,99183.03
2017-10-23T06:51:58.525Z,99176.53
2017-10-23T06:54:26.011Z,99183.77
2017-10-23T06:56:53.527Z,99194.69
2017-10-23T06:59:20.990Z,99192.86
2017-10-23T07:01:48.477Z,99185.63
2017-10-23T07:04:15.993Z,99179.65
2017-10-23T07:06:43.494Z,99188.35
2017-10-23T07:09:11.085Z,99185.84
2017-10-23T07:11:38.596Z,99190.05
2017-10-23T07:14:06.137Z,99192.86
2017-10-23T07:16:33.694Z,99205.12
2017-10-23T07:19:01.180Z,99194.52
2017-10-23T07:21:28.681Z,99205.70
2017-10-23T07:23:56.187Z,99194.38
2017-10-23T07:26:23.694Z,99202.66
2017-10-23T07:28:51.176Z,99204.08
2017-10-23T07:31:18.753Z,99206.03
2017-10-23T07:33:46.240Z,99201.94
2017-10-23T07:36:13.720Z,99204.06
2017-10-23T07:38:41.207Z,99204.56
2017-10-23T07:41:08.762Z,99200.83
2017-10-23T07:43:36.330Z,99200.72
2017-10-23T07:46:03.802Z,99208.87
2017-10-23T07:48:31.284Z,99198.57
2017-10-23T07:50:58.750Z,99198.88
2017-10-23T07:53:31.266Z,99224.91
2017-10-23T07:55:58.754Z,99204.53
2017-10-23T07:58:26.237Z,99204.73
2017-10-23T08:00:53.736Z,99205.60
2017-10-23T08:03:21.214Z,99206.17
2017-10-23T08:05:48.694Z,99207.55
2017-10-23T08:08:16.210Z,99204.38
2017-10-23T08:10:43.690Z,99205.23
2017-10-23T08:13:11.166Z,99221.82
2017-10-23T08:15:38.686Z,99210.01
2017-10-23T08:18:06.180Z,99215.44
2017-10-23T08:20:33.682Z,99205.60
2017-10-23T08:23:01.170Z,99204.67
2017-10-23T08:25:28.698Z,99220.48
2017-10-23T08:27:56.176Z,99220.67
2017-10-23T08:30:23.670Z,99203.67
2017-10-23T08:32:51.129Z,99216.55
2017-10-23T08:35:18.607Z,99198.20
2017-10-23T08:37:46.113Z,99198.05
2017-10-23T08:40:13.594Z,99214.84
2017-10-23T08:42:41.096Z,99233.55
2017-10-23T08:45:08.579Z,99189.08
2017-10-23T08:47:36.073Z,99200.20
2017-10-23T08:50:03.545Z,99210.91
2017-10-23T08:52:31.093Z,99210.80
2017-10-23T08:54:58.562Z,99206.23
2017-10-23T08:57:26.014Z,99225.38
2017-10-23T08:59:53.538Z,99230.02
2017-10-23T09:02:21.021Z,99220.16
2017-10-23T09:04:48.542Z,99204.37
2017-10-23T09:07:16.089Z,99229.72
2017-10-23T09:09:43.581Z,99232.21
2017-10-23T09:12:11.049Z,99232.25
2017-10-23T09:14:38.530Z,99221.23
2017-10-23T09:17:06.127Z,99239.03
2017-10-23T09:19:33.635Z,99225.55
2017-10-23T09:22:01.173Z,99215.83
2017-10-23T09:24:28.707Z,99217.77
2017-10-23T09:26:56.204Z,99204.29
2017-10-23T09:29:23.723Z,99199.91
2017-10-23T09:31:51.193Z,99206.44
2017-10-23T09:34:18.652Z,99209.30
2017-10-23T09:36:46.201Z,99209.86
2017-10-23T09:39:13.653Z,99208.20
2017-10-23T09:41:41.169Z,99207.66
2017-10-23T09:44:08.644Z,99225.08
2017-10-23T09:46:36.120Z,99216.42
2017-10-23T09:49:03.596Z,99218.64
2017-10-23T09:51:31.093Z,99214.97
2017-10-23T09:53:58.566Z,99220.01
2017-10-23T09:56:26.043Z,99210.84
2017-10-23T09:58:53.606Z,99211.17
2017-10-23T10:01:21.102Z,99214.39
2017-10-23T10:03:48.565Z,99239.34
2017-10-23T10:06:16.050Z,99215.44
2017-10-23T10:08:43.534Z,99210.94
2017-10-23T10:11:11.050Z,99212.64
2017-10-23T10:13:38.520Z,99227.75
2017-10-23T10:16:05.978Z,99229.46
2017-10-23T10:18:33.459Z,99215.94
2017-10-23T10:21:00.976Z,99220.76
2017-10-23T10:23:28.536Z,99223.97
2017-10-23T10:25:56.027Z,99257.45
2017-10-23T10:28:24.361Z,99210.66
2017-10-23T10:30:51.911Z,99223.13
2017-10-23T10:33:19.400Z,99243.91
2017-10-23T10:35:46.895Z,99236.23
2017-10-23T10:38:14.425Z,99208.44
2017-10-23T10:40:41.896Z,99220.09
2017-10-23T10:43:09.365Z,99226.04
2017-10-23T10:45:36.882Z,99222.10
2017-10-23T10:48:04.399Z,99215.40
2017-10-23T10:50:31.914Z,99209.86
2017-10-23T10:52:59.465Z,99213.26
2017-10-23T10:55:26.947Z,99231.66
2017-10-23T10:57:54.420Z,99218.86
2017-10-23T11:00:21.861Z,99264.92
2017-10-23T11:02:49.349Z,99267.98
2017-10-23T11:05:16.844Z,99212.05
2017-10-23T11:07:44.365Z,99211.55
2017-10-23T11:10:11.867Z,99219.59
2017-10-23T11:12:39.346Z,99223.02
2017-10-23T11:15:06.804Z,99203.88
2017-10-23T11:17:34.328Z,99208.07
2017-10-23T11:20:01.815Z,99215.50
2017-10-23T11:22:29.321Z,99235.25
2017-10-23T11:24:56.790Z,99222.27
2017-10-23T11:27:24.307Z,99261.89
2017-10-23T11:29:51.783Z,99217.34
2017-10-23T11:32:19.274Z,99223.47
2017-10-23T11:34:46.827Z,99211.36
2017-10-23T11:37:14.293Z,99224.09
2017-10-23T11:39:41.756Z,99217.47
2017-10-23T11:42:09.249Z,99223.06
2017-10-23T11:44:36.724Z,99219.67
2017-10-23T11:47:04.274Z,99223.61
2017-10-23T11:49:31.838Z,99214.30
2017-10-23T11:51:59.302Z,99218.98
2017-10-23T11:54:26.799Z,99223.81
2017-10-23T11:56:54.326Z,99216.86
2017-10-23T11:59:21.807Z,99238.91
2017-10-23T12:01:49.274Z,99225.68
2017-10-23T12:04:17.127Z,99234.91
2017-10-23T12:06:44.600Z,99235.50
2017-10-23T12:09:12.077Z,99227.16
2017-10-23T12:11:39.567Z,99232.70
2017-10-23T12:14:07.146Z,99247.70
2017-10-23T12:16:34.625Z,99235.55
2017-10-23T12:19:02.162Z,99239.77
2017-10-23T12:21:29.612Z,99234.84
2017-10-23T12:23:57.065Z,99266.70
2017-10-23T12:26:24.573Z,99232.88
2017-10-23T12:28:52.041Z,99282.70
2017-10-23T12:31:19.519Z,99257.13
2017-10-23T12:33:47.025Z,99300.77
2017-10-23T12:36:14.523Z,99241.08
2017-10-23T12:38:42.020Z,99292.63
2017-10-23T12:41:09.562Z,99266.23
2017-10-23T12:43:37.049Z,99258.33
2017-10-23T12:46:04.537Z,99262.53
2017-10-23T12:48:32.021Z,99266.89
2017-10-23T12:50:59.469Z,99268.05
2017-10-23T12:53:26.946Z,99266.98
2017-10-23T12:55:54.436Z,99272.95
2017-10-23T12:58:21.907Z,99276.68
2017-10-23T13:00:49.392Z,99276.37
2017-10-23T13:03:16.886Z,99289.96
2017-10-23T13:05:44.756Z,99300.48
2017-10-23T13:08:12.631Z,99275.78
2017-10-23T13:10:40.138Z,99278.38
2017-10-23T13:13:07.589Z,99277.20
2017-10-23T13:15:35.045Z,99290.27
2017-10-23T13:18:02.538Z,99295.70
2017-10-23T13:20:30.008Z,99293.99
2017-10-23T13:22:57.465Z,99288.70
2017-10-23T13:25:24.945Z,99297.28
2017-10-23T13:27:52.404Z,99292.95
2017-10-23T13:30:19.853Z,99299.00
2017-10-23T13:32:47.334Z,99311.05
2017-10-23T13:35:14.808Z,99309.66
2017-10-23T13:37:42.277Z,99307.52
2017-10-23T13:40:09.858Z,99307.63
2017-10-23T13:42:37.322Z,99298.95
2017-10-23T13:45:04.815Z,99301.55
2017-10-23T13:47:32.307Z,99314.30
2017-10-23T13:49:59.775Z,99302.72
2017-10-23T13:52:27.250Z,99312.34
2017-10-23T13:54:54.760Z,99311.95
2017-10-23T13:57:22.225Z,99307.69
2017-10-23T13:59:49.714Z,99313.02
2017-10-23T14:02:17.215Z,99317.32
2017-10-23T14:04:44.709Z,99324.52
2017-10-23T14:07:12.180Z,99327.02
2017-10-23T14:09:39.691Z,99325.20
2017-10-23T14:12:07.155Z,99332.52
2017-10-23T14:14:34.621Z,99323.13
2017-10-23T14:17:02.119Z,99344.53
2017-10-23T14:19:29.584Z,99351.02
2017-10-23T14:21:57.060Z,99344.15
2017-10-23T14:24:24.550Z,99351.03
2017-10-23T14:26:52.028Z,99346.34
2017-10-23T14:29:19.551Z,99351.50
2017-10-23T14:31:47.101Z,99346.29
2017-10-23T14:34:14.612Z,99354.38
2017-10-23T14:36:42.102Z,99379.59
2017-10-23T14:39:09.611Z,99343.28
2017-10-23T14:41:37.110Z,99362.49
2017-10-23T14:44:04.694Z,99401.25
2017-10-23T14:46:32.241Z,99354.70
2017-10-23T14:48:59.768Z,99356.51
2017-10-23T14:51:27.274Z,99381.58
2017-10-23T14:53:54.820Z,99351.23
2017-10-23T14:56:22.276Z,99374.26
2017-10-23T14:58:49.783Z,99380.92
2017-10-23T15:01:17.315Z,99368.18
2017-10-23T15:03:44.794Z,99374.89
2017-10-23T15:06:12.265Z,99375.20
2017-10-23T15:08:39.778Z,99370.09
2017-10-23T15:11:07.273Z,99375.11
2017-10-23T15:13:34.751Z,99373.77
2017-10-23T15:16:02.248Z,99372.89
2017-10-23T15:18:29.862Z,99387.36
2017-10-23T15:20:57.551Z,99393.39
2017-10-23T15:23:25.044Z,99383.16
2017-10-23T15:25:52.756Z,99386.56
2017-10-23T15:28:20.512Z,99407.05
2017-10-23T15:30:48.161Z,99391.67
2017-10-23T15:33:15.641Z,99410.39
2017-10-23T15:35:43.126Z,99395.89
2017-10-23T15:38:10.667Z,99386.50
2017-10-23T15:40:38.137Z,99386.50
2017-10-23T15:43:05.647Z,99394.13
2017-10-23T15:45:33.124Z,99389.53
2017-10-23T15:48:00.599Z,99391.67
2017-10-23T15:50:28.070Z,99403.69
2017-10-23T15:52:55.554Z,99403.93
2017-10-23T15:55:23.041Z,99399.14
2017-10-23T15:57:50.551Z,99459.80
2017-10-23T16:00:18.083Z,99427.79
2017-10-23T16:02:45.549Z,99441.45
2017-10-23T16:05:13.042Z,99404.84
2017-10-23T16:07:40.547Z,99413.70
2017-10-23T16:10:08.039Z,99416.20
2017-10-23T16:12:35.531Z,99426.98
2017-10-23T16:15:03.022Z,99443.38
2017-10-23T16:17:30.518Z,99419.38
2017-10-23T16:19:57.978Z,99432.53
2017-10-23T16:22:25.481Z,99433.50
2017-10-23T16:24:52.966Z,99451.69
2017-10-23T16:27:20.438Z,99465.39
2017-10-23T16:29:47.996Z,99443.30
2017-10-23T16:32:15.491Z,99454.09
2017-10-23T16:34:42.976Z,99436.06
2017-10-23T16:37:10.495Z,99468.49
2017-10-23T16:39:37.985Z,99447.09
2017-10-23T16:42:05.488Z,99450.47
2017-10-23T16:44:33.000Z,99442.83
2017-10-23T16:47:00.502Z,99449.17
2017-10-23T16:49:27.985Z,99470.52
2017-10-23T16:51:55.497Z,99470.52
2017-10-23T16:54:22.957Z,99492.70
2017-10-23T16:56:50.435Z,99462.36
2017-10-23T16:59:17.923Z,99468.34
2017-10-23T17:01:45.394Z,99473.45
2017-10-23T17:04:12.875Z,99472.34
2017-10-23T17:06:40.378Z,99470.16
2017-10-23T17:09:07.836Z,99498.64
2017-10-23T17:11:35.290Z,99481.73
2017-10-23T17:14:02.771Z,99481.88
2017-10-23T17:16:30.309Z,99512.13
2017-10-23T17:18:57.854Z,99484.72
2017-10-23T17:21:25.383Z,99486.52
2017-10-23T17:23:52.951Z,99486.48
2017-10-23T17:26:20.478Z,99496.34
2017-10-23T17:28:47.989Z,99494.11
2017-10-23T17:31:15.543Z,99497.95
2017-10-23T17:33:43.068Z,99500.62
2017-10-23T17:36:10.554Z,99503.16
2017-10-23T17:38:38.020Z,99514.16
2017-10-23T17:41:05.515Z,99532.50
2017-10-23T17:43:33.018Z,99520.18
2017-10-23T17:46:00.467Z,99529.16
2017-10-23T17:48:27.976Z,99539.44
2017-10-23T17:50:55.520Z,99520.66
2017-10-23T17:53:23.591Z,99524.08
2017-10-23T17:55:51.113Z,99530.10
2017-10-23T17:58:18.605Z,99530.44
2017-10-23T18:00:46.083Z,99545.84
2017-10-23T18:03:13.615Z,99537.74
2017-10-23T18:05:41.375Z,99583.78
2017-10-23T18:08:08.877Z,99544.52
2017-10-23T18:10:36.342Z,99542.48
2017-10-23T18:13:03.909Z,99548.89
2017-10-23T18:15:31.643Z,99549.35
2017-10-23T18:17:59.137Z,99548.89
2017-10-23T18:20:26.649Z,99547.59
2017-10-23T18:22:54.165Z,99569.47
2017-10-23T18:25:21.624Z,99551.45
2017-10-23T18:27:49.138Z,99555.70
2017-10-23T18:30:16.595Z,99582.13
2017-10-23T18:32:44.123Z,99571.97
2017-10-23T18:35:11.629Z,99588.19
2017-10-23T18:37:39.115Z,99581.37
2017-10-23T18:40:06.666Z,99577.95
2017-10-23T18:42:34.163Z,99587.33
2017-10-23T18:45:01.651Z,99573.68
2017-10-23T18:47:29.158Z,99609.52
2017-10-23T18:49:56.673Z,99580.41
2017-10-23T18:52:24.162Z,99584.34
2017-10-23T18:54:51.666Z,99589.09
2017-10-23T18:57:19.153Z,99597.96
2017-10-23T18:59:46.637Z,99598.30
2017-10-23T19:02:14.145Z,99612.89
2017-10-23T19:04:41.682Z,99599.71
2017-10-23T19:07:09.178Z,99600.84
2017-10-23T19:09:36.671Z,99612.75
2017-10-23T19:12:10.584Z,99613.66
2017-10-23T19:14:38.139Z,99627.78
2017-10-23T19:17:05.630Z,99628.97
2017-10-23T19:19:33.518Z,99618.39
2017-10-23T19:22:01.031Z,99619.72
2017-10-23T19:24:28.543Z,99660.94
2017-10-23T19:26:56.096Z,99649.45
2017-10-23T19:29:23.597Z,99628.55
2017-10-23T19:31:51.069Z,99637.13
2017-10-23T19:34:18.570Z,99627.69
2017-10-23T19:36:46.071Z,99644.34
2017-10-23T19:39:13.596Z,99667.81
2017-10-23T19:41:41.147Z,99645.23
2017-10-23T19:44:08.628Z,99653.21
2017-10-23T19:46:36.093Z,99655.44
2017-10-23T19:49:03.633Z,99638.75
2017-10-23T19:51:31.100Z,99649.89
2017-10-23T19:53:58.599Z,99643.87
2017-10-23T19:56:26.118Z,99648.55
2017-10-23T19:58:53.687Z,99658.84
2017-10-23T20:01:21.179Z,99669.00
2017-10-23T20:03:48.703Z,99664.73
2017-10-23T20:06:16.177Z,99646.47
2017-10-23T20:08:43.724Z,99645.19
2017-10-23T20:11:11.279Z,99667.72
2017-10-23T20:13:38.769Z,99709.55
2017-10-23T20:16:06.873Z,99678.38
2017-10-23T20:18:34.377Z,99668.66
2017-10-23T20:21:01.859Z,99678.91
2017-10-23T20:23:29.347Z,99693.38
2017-10-23T20:25:56.855Z,99666.52
2017-10-23T20:28:24.369Z,99680.98
2017-10-23T20:30:51.866Z,99675.45
2017-10-23T20:33:19.401Z,99674.69
2017-10-23T20:35:46.940Z,99681.47
2017-10-23T20:38:14.514Z,99698.53
2017-10-23T20:40:42.052Z,99715.73
2017-10-23T20:43:09.577Z,99703.33
2017-10-23T20:45:37.041Z,99685.35
2017-10-23T20:48:04.541Z,99708.78
2017-10-23T20:50:32.056Z,99696.87
2017-10-23T20:52:59.569Z,99699.39
2017-10-23T20:55:27.039Z,99708.41
2017-10-23T20:57:54.494Z,99710.06
2017-10-23T21:00:21.954Z,99715.66
2017-10-23T21:02:49.498Z,99721.11
2017-10-23T21:05:17.004Z,99707.16
2017-10-23T21:07:44.461Z,99719.92
2017-10-23T21:10:11.945Z,99721.63
2017-10-23T21:12:39.429Z,99741.17
2017-10-23T21:15:06.963Z,99744.59
2017-10-23T21:17:34.491Z,99736.95
2017-10-23T21:20:01.966Z,99748.52
2017-10-23T21:22:29.417Z,99759.19
2017-10-23T21:24:56.903Z,99735.71
2017-10-23T21:27:24.364Z,99754.58
2017-10-23T21:29:51.822Z,99767.41
2017-10-23T21:32:19.314Z,99745.23
2017-10-23T21:34:46.777Z,99745.73
2017-10-23T21:37:14.295Z,99749.06
2017-10-23T21:39:41.796Z,99746.58
2017-10-23T21:42:10.458Z,99765.40
2017-10-23T21:44:37.925Z,99759.89
2017-10-23T21:47:10.425Z,99771.44
2017-10-23T21:49:37.937Z,99786.38
2017-10-23T21:52:05.470Z,99780.41
2017-10-23T21:54:32.975Z,99806.36
2017-10-23T21:57:00.431Z,99787.52
2017-10-23T21:59:27.908Z,99811.02
2017-10-23T22:01:55.444Z,99782.03
2017-10-23T22:04:22.920Z,99784.98
2017-10-23T22:06:50.475Z,99788.02
2017-10-23T22:09:17.959Z,99785.38
2017-10-23T22:11:45.441Z,99791.00
2017-10-23T22:14:12.899Z,99786.34
2017-10-23T22:16:40.362Z,99784.67
2017-10-23T22:19:07.818Z,99794.87
2017-10-23T22:21:35.275Z,99781.19
2017-10-23T22:24:02.800Z,99793.98
2017-10-23T22:26:30.262Z,99794.84
2017-10-23T22:28:57.757Z,99784.63
2017-10-23T22:31:25.245Z,99794.45
2017-10-23T22:33:52.702Z,99795.73
2017-10-23T22:36:20.172Z,99785.95
2017-10-23T22:38:47.642Z,99798.47
2017-10-23T22:41:15.111Z,99788.09
2017-10-23T22:43:42.578Z,99795.41
2017-10-23T22:46:10.078Z,99810.37
2017-10-23T22:48:37.534Z,99812.94
2017-10-23T22:51:05.032Z,99805.33
2017-10-23T22:53:32.550Z,99801.02
2017-10-23T22:56:00.019Z,99799.75
2017-10-23T22:58:27.504Z,99817.27
2017-10-23T23:00:54.981Z,99824.48
2017-10-23T23:03:22.468Z,99854.73
2017-10-23T23:05:49.965Z,99803.59
2017-10-23T23:08:17.509Z,99815.95
2017-10-23T23:10:44.982Z,99821.04
2017-10-23T23:13:12.455Z,99822.28
2017-10-23T23:15:39.969Z,99818.87
2017-10-23T23:18:07.455Z,99828.23
2017-10-23T23:20:34.974Z,99822.28
2017-10-23T23:23:02.488Z,99861.47
2017-10-23T23:25:29.991Z,99819.16
2017-10-23T23:27:57.437Z,99818.27
2017-10-23T23:30:24.909Z,99822.14
2017-10-23T23:32:52.537Z,99817.06
2017-10-23T23:35:19.998Z,99820.87
2017-10-23T23:37:47.481Z,99843.94
2017-10-23T23:40:14.982Z,99814.15
2017-10-23T23:42:42.463Z,99838.89
2017-10-23T23:45:09.967Z,99824.84
2017-10-23T23:47:37.424Z,99831.67
2017-10-23T23:50:04.871Z,99822.28
2017-10-23T23:52:32.348Z,99837.22
2017-10-23T23:54:59.822Z,99835.97
2017-10-23T23:57:27.276Z,99845.33
2017-10-23T23:59:54.775Z,99847.42
